sensor_id;sensor_type;location;lat;lon;timestamp;P1;durP1;ratioP1;P2;durP2;ratioP2
21543;SDS011;10933;50.754;11.508;2023-11-18T00:01:25;3.70;;;3.40;;
21543;SDS011;10933;50.754;11.508;2023-11-18T00:03:56;4.00;;;3.70;;
21543;SDS011;10933;50.754;11.508;2023-11-18T00:06:23;3.63;;;3.33;;
21543;SDS011;10933;50.754;11.508;2023-11-18T00:08:48;4.17;;;3.77;;
21543;SDS011;10933;50.754;11.508;2023-11-18T00:11:14;2.90;;;2.70;;
21543;SDS011;10933;50.754;11.508;2023-11-18T00:13:40;5.63;;;3.37;;
21543;SDS011;10933;50.754;11.508;2023-11-18T00:16:09;3.20;;;3.00;;
21543;SDS011;10933;50.754;11.508;2023-11-18T00:18:40;3.50;;;3.30;;
21543;SDS011;10933;50.754;11.508;2023-11-18T00:21:07;4.80;;;4.40;;
21543;SDS011;10933;50.754;11.508;2023-11-18T00:23:35;4.10;;;3.80;;
21543;SDS011;10933;50.754;11.508;2023-11-18T00:26:01;3.60;;;3.40;;
21543;SDS011;10933;50.754;11.508;2023-11-18T00:28:27;4.23;;;3.47;;
21543;SDS011;10933;50.754;11.508;2023-11-18T00:30:53;4.90;;;3.93;;
21543;SDS011;10933;50.754;11.508;2023-11-18T00:33:19;3.90;;;3.70;;
21543;SDS011;10933;50.754;11.508;2023-11-18T00:35:45;3.30;;;3.10;;
21543;SDS011;10933;50.754;11.508;2023-11-18T00:38:11;5.80;;;3.40;;
21543;SDS011;10933;50.754;11.508;2023-11-18T00:40:37;3.90;;;3.60;;
21543;SDS011;10933;50.754;11.508;2023-11-18T00:43:03;3.80;;;3.50;;
21543;SDS011;10933;50.754;11.508;2023-11-18T00:45:29;3.67;;;3.40;;
21543;SDS011;10933;50.754;11.508;2023-11-18T00:47:55;4.00;;;3.70;;
21543;SDS011;10933;50.754;11.508;2023-11-18T00:50:21;4.00;;;3.70;;
21543;SDS011;10933;50.754;11.508;2023-11-18T00:52:46;3.63;;;3.43;;
21543;SDS011;10933;50.754;11.508;2023-11-18T00:55:14;6.80;;;4.23;;
21543;SDS011;10933;50.754;11.508;2023-11-18T00:57:43;5.03;;;4.73;;
21543;SDS011;10933;50.754;11.508;2023-11-18T01:00:12;4.67;;;4.17;;
21543;SDS011;10933;50.754;11.508;2023-11-18T01:02:41;4.13;;;3.73;;
21543;SDS011;10933;50.754;11.508;2023-11-18T01:05:08;4.23;;;3.93;;
21543;SDS011;10933;50.754;11.508;2023-11-18T01:07:35;4.20;;;3.80;;
21543;SDS011;10933;50.754;11.508;2023-11-18T01:10:03;3.53;;;3.03;;
21543;SDS011;10933;50.754;11.508;2023-11-18T01:12:31;3.83;;;3.53;;
21543;SDS011;10933;50.754;11.508;2023-11-18T01:14:57;3.60;;;3.40;;
21543;SDS011;10933;50.754;11.508;2023-11-18T01:17:22;6.73;;;3.70;;
21543;SDS011;10933;50.754;11.508;2023-11-18T01:19:49;6.43;;;3.13;;
21543;SDS011;10933;50.754;11.508;2023-11-18T01:22:15;13.87;;;3.50;;
21543;SDS011;10933;50.754;11.508;2023-11-18T01:24:43;3.43;;;3.23;;
21543;SDS011;10933;50.754;11.508;2023-11-18T01:27:10;2.77;;;2.60;;
21543;SDS011;10933;50.754;11.508;2023-11-18T01:29:36;3.37;;;3.10;;
21543;SDS011;10933;50.754;11.508;2023-11-18T01:32:02;3.10;;;2.80;;
21543;SDS011;10933;50.754;11.508;2023-11-18T01:34:34;2.53;;;2.33;;
21543;SDS011;10933;50.754;11.508;2023-11-18T01:37:02;3.53;;;3.33;;
21543;SDS011;10933;50.754;11.508;2023-11-18T01:39:32;2.97;;;2.73;;
21543;SDS011;10933;50.754;11.508;2023-11-18T01:41:59;3.10;;;2.90;;
21543;SDS011;10933;50.754;11.508;2023-11-18T01:44:25;3.10;;;2.90;;
21543;SDS011;10933;50.754;11.508;2023-11-18T01:46:53;2.90;;;2.70;;
21543;SDS011;10933;50.754;11.508;2023-11-18T01:49:21;2.93;;;2.73;;
21543;SDS011;10933;50.754;11.508;2023-11-18T01:51:49;2.90;;;2.70;;
21543;SDS011;10933;50.754;11.508;2023-11-18T01:54:19;3.03;;;2.83;;
21543;SDS011;10933;50.754;11.508;2023-11-18T01:56:49;4.97;;;3.00;;
21543;SDS011;10933;50.754;11.508;2023-11-18T01:59:17;3.20;;;3.00;;
21543;SDS011;10933;50.754;11.508;2023-11-18T02:01:47;3.20;;;2.83;;
21543;SDS011;10933;50.754;11.508;2023-11-18T02:04:16;3.50;;;3.20;;
21543;SDS011;10933;50.754;11.508;2023-11-18T02:06:44;3.00;;;2.80;;
21543;SDS011;10933;50.754;11.508;2023-11-18T02:09:13;2.37;;;2.27;;
21543;SDS011;10933;50.754;11.508;2023-11-18T02:14:54;3.63;;;3.33;;
21543;SDS011;10933;50.754;11.508;2023-11-18T02:17:25;3.90;;;2.43;;
21543;SDS011;10933;50.754;11.508;2023-11-18T02:19:55;3.20;;;2.90;;
21543;SDS011;10933;50.754;11.508;2023-11-18T02:22:23;3.43;;;3.23;;
21543;SDS011;10933;50.754;11.508;2023-11-18T02:24:50;3.47;;;3.17;;
21543;SDS011;10933;50.754;11.508;2023-11-18T02:27:16;3.00;;;2.63;;
21543;SDS011;10933;50.754;11.508;2023-11-18T02:29:45;3.30;;;3.10;;
21543;SDS011;10933;50.754;11.508;2023-11-18T02:35:03;3.10;;;2.90;;
21543;SDS011;10933;50.754;11.508;2023-11-18T02:37:41;3.27;;;2.97;;
21543;SDS011;10933;50.754;11.508;2023-11-18T02:40:12;3.13;;;2.93;;
21543;SDS011;10933;50.754;11.508;2023-11-18T02:42:45;6.30;;;3.00;;
21543;SDS011;10933;50.754;11.508;2023-11-18T02:45:18;3.03;;;2.83;;
21543;SDS011;10933;50.754;11.508;2023-11-18T02:47:46;6.57;;;2.83;;
21543;SDS011;10933;50.754;11.508;2023-11-18T02:50:12;3.23;;;3.00;;
21543;SDS011;10933;50.754;11.508;2023-11-18T02:52:40;3.13;;;2.93;;
21543;SDS011;10933;50.754;11.508;2023-11-18T02:55:07;3.47;;;3.17;;
21543;SDS011;10933;50.754;11.508;2023-11-18T02:57:34;3.47;;;2.97;;
21543;SDS011;10933;50.754;11.508;2023-11-18T03:00:01;2.97;;;2.77;;
21543;SDS011;10933;50.754;11.508;2023-11-18T03:02:30;3.20;;;3.00;;
21543;SDS011;10933;50.754;11.508;2023-11-18T03:04:56;2.80;;;2.60;;
21543;SDS011;10933;50.754;11.508;2023-11-18T03:07:23;2.93;;;2.73;;
21543;SDS011;10933;50.754;11.508;2023-11-18T03:09:49;3.00;;;2.80;;
21543;SDS011;10933;50.754;11.508;2023-11-18T03:12:15;2.93;;;2.73;;
21543;SDS011;10933;50.754;11.508;2023-11-18T03:14:41;2.90;;;2.70;;
21543;SDS011;10933;50.754;11.508;2023-11-18T03:17:07;3.10;;;2.90;;
21543;SDS011;10933;50.754;11.508;2023-11-18T03:19:34;3.00;;;2.80;;
21543;SDS011;10933;50.754;11.508;2023-11-18T03:22:01;4.30;;;3.00;;
21543;SDS011;10933;50.754;11.508;2023-11-18T03:24:28;3.23;;;3.03;;
21543;SDS011;10933;50.754;11.508;2023-11-18T03:26:54;3.77;;;3.47;;
21543;SDS011;10933;50.754;11.508;2023-11-18T03:29:20;2.80;;;2.60;;
21543;SDS011;10933;50.754;11.508;2023-11-18T03:31:46;2.80;;;2.60;;
21543;SDS011;10933;50.754;11.508;2023-11-18T03:34:14;5.10;;;3.10;;
21543;SDS011;10933;50.754;11.508;2023-11-18T03:36:45;2.87;;;2.67;;
21543;SDS011;10933;50.754;11.508;2023-11-18T03:39:12;3.07;;;2.87;;
21543;SDS011;10933;50.754;11.508;2023-11-18T03:41:39;6.00;;;3.57;;
21543;SDS011;10933;50.754;11.508;2023-11-18T03:44:09;3.13;;;2.93;;
21543;SDS011;10933;50.754;11.508;2023-11-18T03:46:38;3.47;;;3.23;;
21543;SDS011;10933;50.754;11.508;2023-11-18T03:49:04;4.27;;;3.90;;
21543;SDS011;10933;50.754;11.508;2023-11-18T03:51:29;4.10;;;3.80;;
21543;SDS011;10933;50.754;11.508;2023-11-18T03:53:55;4.00;;;3.70;;
21543;SDS011;10933;50.754;11.508;2023-11-18T03:56:21;3.50;;;3.20;;
21543;SDS011;10933;50.754;11.508;2023-11-18T03:58:47;3.37;;;3.17;;
21543;SDS011;10933;50.754;11.508;2023-11-18T04:01:22;3.63;;;3.33;;
21543;SDS011;10933;50.754;11.508;2023-11-18T04:03:53;3.57;;;3.33;;
21543;SDS011;10933;50.754;11.508;2023-11-18T04:06:20;3.23;;;2.97;;
21543;SDS011;10933;50.754;11.508;2023-11-18T04:08:47;3.50;;;3.30;;
21543;SDS011;10933;50.754;11.508;2023-11-18T04:11:14;3.33;;;3.13;;
21543;SDS011;10933;50.754;11.508;2023-11-18T04:13:40;3.47;;;3.20;;
21543;SDS011;10933;50.754;11.508;2023-11-18T04:16:10;3.47;;;3.20;;
21543;SDS011;10933;50.754;11.508;2023-11-18T04:18:44;4.33;;;4.00;;
21543;SDS011;10933;50.754;11.508;2023-11-18T04:21:12;5.33;;;4.10;;
21543;SDS011;10933;50.754;11.508;2023-11-18T04:23:39;3.63;;;3.33;;
21543;SDS011;10933;50.754;11.508;2023-11-18T04:26:07;3.53;;;3.33;;
21543;SDS011;10933;50.754;11.508;2023-11-18T04:28:34;4.87;;;4.47;;
21543;SDS011;10933;50.754;11.508;2023-11-18T04:31:01;4.93;;;4.63;;
21543;SDS011;10933;50.754;11.508;2023-11-18T04:33:28;3.17;;;2.97;;
21543;SDS011;10933;50.754;11.508;2023-11-18T04:35:54;5.43;;;2.77;;
21543;SDS011;10933;50.754;11.508;2023-11-18T04:38:23;4.23;;;2.60;;
21543;SDS011;10933;50.754;11.508;2023-11-18T04:40:53;3.53;;;2.80;;
21543;SDS011;10933;50.754;11.508;2023-11-18T04:43:20;2.83;;;2.63;;
21543;SDS011;10933;50.754;11.508;2023-11-18T04:45:50;4.83;;;3.57;;
21543;SDS011;10933;50.754;11.508;2023-11-18T04:48:15;9.73;;;8.83;;
21543;SDS011;10933;50.754;11.508;2023-11-18T04:50:41;12.37;;;11.07;;
21543;SDS011;10933;50.754;11.508;2023-11-18T04:53:08;8.53;;;7.77;;
21543;SDS011;10933;50.754;11.508;2023-11-18T04:55:35;4.80;;;4.40;;
21543;SDS011;10933;50.754;11.508;2023-11-18T04:58:02;72.07;;;33.97;;
21543;SDS011;10933;50.754;11.508;2023-11-18T05:00:29;61.20;;;28.20;;
21543;SDS011;10933;50.754;11.508;2023-11-18T05:02:55;35.90;;;21.57;;
21543;SDS011;10933;50.754;11.508;2023-11-18T05:05:22;29.10;;;19.47;;
21543;SDS011;10933;50.754;11.508;2023-11-18T05:07:48;28.83;;;17.57;;
21543;SDS011;10933;50.754;11.508;2023-11-18T05:10:14;15.27;;;13.97;;
21543;SDS011;10933;50.754;11.508;2023-11-18T05:12:40;11.07;;;9.37;;
21543;SDS011;10933;50.754;11.508;2023-11-18T05:15:08;10.23;;;9.47;;
21543;SDS011;10933;50.754;11.508;2023-11-18T05:17:35;11.27;;;10.23;;
21543;SDS011;10933;50.754;11.508;2023-11-18T05:20:05;8.80;;;8.20;;
21543;SDS011;10933;50.754;11.508;2023-11-18T05:22:36;8.50;;;7.70;;
21543;SDS011;10933;50.754;11.508;2023-11-18T05:25:02;7.47;;;6.87;;
21543;SDS011;10933;50.754;11.508;2023-11-18T05:27:32;6.37;;;5.87;;
21543;SDS011;10933;50.754;11.508;2023-11-18T05:29:58;4.90;;;4.60;;
21543;SDS011;10933;50.754;11.508;2023-11-18T05:32:27;5.30;;;4.90;;
21543;SDS011;10933;50.754;11.508;2023-11-18T05:34:55;5.70;;;4.57;;
21543;SDS011;10933;50.754;11.508;2023-11-18T05:37:22;4.50;;;4.10;;
21543;SDS011;10933;50.754;11.508;2023-11-18T05:39:49;4.87;;;4.47;;
21543;SDS011;10933;50.754;11.508;2023-11-18T05:42:27;4.73;;;3.33;;
21543;SDS011;10933;50.754;11.508;2023-11-18T05:44:53;4.97;;;3.93;;
21543;SDS011;10933;50.754;11.508;2023-11-18T05:47:27;4.27;;;3.97;;
21543;SDS011;10933;50.754;11.508;2023-11-18T05:49:53;3.83;;;3.53;;
21543;SDS011;10933;50.754;11.508;2023-11-18T05:52:20;6.33;;;5.83;;
21543;SDS011;10933;50.754;11.508;2023-11-18T05:54:47;4.97;;;4.67;;
21543;SDS011;10933;50.754;11.508;2023-11-18T05:57:16;4.60;;;4.23;;
21543;SDS011;10933;50.754;11.508;2023-11-18T05:59:43;5.63;;;3.80;;
21543;SDS011;10933;50.754;11.508;2023-11-18T06:02:11;4.67;;;4.37;;
21543;SDS011;10933;50.754;11.508;2023-11-18T06:04:44;7.13;;;6.70;;
21543;SDS011;10933;50.754;11.508;2023-11-18T06:07:10;7.77;;;7.27;;
21543;SDS011;10933;50.754;11.508;2023-11-18T06:09:38;8.50;;;8.00;;
21543;SDS011;10933;50.754;11.508;2023-11-18T06:12:10;7.77;;;7.10;;
21543;SDS011;10933;50.754;11.508;2023-11-18T06:14:39;9.93;;;7.00;;
21543;SDS011;10933;50.754;11.508;2023-11-18T06:17:06;8.27;;;7.60;;
21543;SDS011;10933;50.754;11.508;2023-11-18T06:19:33;7.03;;;6.60;;
21543;SDS011;10933;50.754;11.508;2023-11-18T06:21:59;7.47;;;6.97;;
21543;SDS011;10933;50.754;11.508;2023-11-18T06:24:25;6.47;;;5.97;;
21543;SDS011;10933;50.754;11.508;2023-11-18T06:26:51;7.90;;;6.90;;
21543;SDS011;10933;50.754;11.508;2023-11-18T06:29:17;5.37;;;4.97;;
21543;SDS011;10933;50.754;11.508;2023-11-18T06:31:43;4.97;;;4.67;;
21543;SDS011;10933;50.754;11.508;2023-11-18T06:34:09;5.43;;;4.93;;
21543;SDS011;10933;50.754;11.508;2023-11-18T06:36:35;6.10;;;5.60;;
21543;SDS011;10933;50.754;11.508;2023-11-18T06:39:00;5.90;;;5.50;;
21543;SDS011;10933;50.754;11.508;2023-11-18T06:41:26;8.40;;;6.87;;
21543;SDS011;10933;50.754;11.508;2023-11-18T06:43:58;6.93;;;6.43;;
21543;SDS011;10933;50.754;11.508;2023-11-18T06:46:34;8.73;;;7.87;;
21543;SDS011;10933;50.754;11.508;2023-11-18T06:49:02;8.63;;;8.03;;
21543;SDS011;10933;50.754;11.508;2023-11-18T06:51:29;7.37;;;6.87;;
21543;SDS011;10933;50.754;11.508;2023-11-18T06:54:00;15.80;;;11.53;;
21543;SDS011;10933;50.754;11.508;2023-11-18T06:56:33;11.70;;;10.63;;
21543;SDS011;10933;50.754;11.508;2023-11-18T06:59:09;10.70;;;10.00;;
21543;SDS011;10933;50.754;11.508;2023-11-18T07:01:39;8.77;;;7.93;;
21543;SDS011;10933;50.754;11.508;2023-11-18T07:04:07;14.07;;;12.70;;
21543;SDS011;10933;50.754;11.508;2023-11-18T07:06:33;9.53;;;8.57;;
21543;SDS011;10933;50.754;11.508;2023-11-18T07:09:03;7.97;;;7.37;;
21543;SDS011;10933;50.754;11.508;2023-11-18T07:11:51;10.53;;;9.83;;
21543;SDS011;10933;50.754;11.508;2023-11-18T07:14:17;7.80;;;7.30;;
21543;SDS011;10933;50.754;11.508;2023-11-18T07:16:43;5.90;;;5.50;;
21543;SDS011;10933;50.754;11.508;2023-11-18T07:19:09;5.57;;;5.17;;
21543;SDS011;10933;50.754;11.508;2023-11-18T07:21:42;5.47;;;5.03;;
21543;SDS011;10933;50.754;11.508;2023-11-18T07:24:08;7.33;;;6.73;;
21543;SDS011;10933;50.754;11.508;2023-11-18T07:26:34;6.90;;;6.37;;
21543;SDS011;10933;50.754;11.508;2023-11-18T07:29:00;8.27;;;7.67;;
21543;SDS011;10933;50.754;11.508;2023-11-18T07:31:26;9.37;;;8.70;;
21543;SDS011;10933;50.754;11.508;2023-11-18T07:33:53;10.87;;;9.93;;
21543;SDS011;10933;50.754;11.508;2023-11-18T07:36:19;12.00;;;10.90;;
21543;SDS011;10933;50.754;11.508;2023-11-18T07:38:45;11.87;;;11.07;;
21543;SDS011;10933;50.754;11.508;2023-11-18T07:41:12;5.53;;;4.93;;
21543;SDS011;10933;50.754;11.508;2023-11-18T07:43:51;9.77;;;8.87;;
21543;SDS011;10933;50.754;11.508;2023-11-18T07:46:21;19.50;;;16.70;;
21543;SDS011;10933;50.754;11.508;2023-11-18T07:48:48;8.50;;;7.83;;
21543;SDS011;10933;50.754;11.508;2023-11-18T07:51:18;10.80;;;10.00;;
21543;SDS011;10933;50.754;11.508;2023-11-18T07:53:48;13.43;;;11.27;;
21543;SDS011;10933;50.754;11.508;2023-11-18T07:56:14;20.43;;;12.13;;
21543;SDS011;10933;50.754;11.508;2023-11-18T07:58:44;8.00;;;7.30;;
21543;SDS011;10933;50.754;11.508;2023-11-18T08:01:11;46.37;;;21.63;;
21543;SDS011;10933;50.754;11.508;2023-11-18T08:03:41;108.13;;;44.33;;
21543;SDS011;10933;50.754;11.508;2023-11-18T08:06:07;116.50;;;50.83;;
21543;SDS011;10933;50.754;11.508;2023-11-18T08:08:34;99.43;;;43.37;;
21543;SDS011;10933;50.754;11.508;2023-11-18T08:11:02;74.80;;;32.60;;
21543;SDS011;10933;50.754;11.508;2023-11-18T08:13:32;77.90;;;31.77;;
21543;SDS011;10933;50.754;11.508;2023-11-18T08:15:58;73.50;;;30.07;;
21543;SDS011;10933;50.754;11.508;2023-11-18T08:18:24;17.17;;;14.60;;
21543;SDS011;10933;50.754;11.508;2023-11-18T08:20:50;11.37;;;9.10;;
21543;SDS011;10933;50.754;11.508;2023-11-18T08:23:16;7.27;;;6.77;;
21543;SDS011;10933;50.754;11.508;2023-11-18T08:25:44;22.63;;;19.80;;
21543;SDS011;10933;50.754;11.508;2023-11-18T08:28:11;11.60;;;10.47;;
21543;SDS011;10933;50.754;11.508;2023-11-18T08:30:38;8.60;;;7.90;;
21543;SDS011;10933;50.754;11.508;2023-11-18T08:33:04;5.93;;;5.53;;
21543;SDS011;10933;50.754;11.508;2023-11-18T08:35:34;5.77;;;5.37;;
21543;SDS011;10933;50.754;11.508;2023-11-18T08:38:00;6.47;;;5.97;;
21543;SDS011;10933;50.754;11.508;2023-11-18T08:40:29;8.87;;;8.07;;
21543;SDS011;10933;50.754;11.508;2023-11-18T08:42:55;5.07;;;4.70;;
21543;SDS011;10933;50.754;11.508;2023-11-18T08:45:23;8.63;;;6.30;;
21543;SDS011;10933;50.754;11.508;2023-11-18T08:47:58;8.80;;;8.10;;
21543;SDS011;10933;50.754;11.508;2023-11-18T08:50:27;8.10;;;7.40;;
21543;SDS011;10933;50.754;11.508;2023-11-18T08:52:54;8.30;;;7.60;;
21543;SDS011;10933;50.754;11.508;2023-11-18T08:55:24;7.60;;;7.20;;
21543;SDS011;10933;50.754;11.508;2023-11-18T08:58:06;8.33;;;7.50;;
21543;SDS011;10933;50.754;11.508;2023-11-18T09:00:53;8.47;;;7.90;;
21543;SDS011;10933;50.754;11.508;2023-11-18T09:03:30;7.80;;;7.17;;
21543;SDS011;10933;50.754;11.508;2023-11-18T09:06:01;7.20;;;6.73;;
21543;SDS011;10933;50.754;11.508;2023-11-18T09:08:40;6.50;;;5.87;;
21543;SDS011;10933;50.754;11.508;2023-11-18T09:11:10;6.50;;;6.10;;
21543;SDS011;10933;50.754;11.508;2023-11-18T09:13:40;7.50;;;6.97;;
21543;SDS011;10933;50.754;11.508;2023-11-18T09:16:12;5.50;;;5.10;;
21543;SDS011;10933;50.754;11.508;2023-11-18T09:18:39;4.50;;;4.20;;
21543;SDS011;10933;50.754;11.508;2023-11-18T09:21:08;6.20;;;5.80;;
21543;SDS011;10933;50.754;11.508;2023-11-18T09:23:39;4.97;;;4.57;;
21543;SDS011;10933;50.754;11.508;2023-11-18T09:26:07;6.77;;;6.13;;
21543;SDS011;10933;50.754;11.508;2023-11-18T09:28:35;6.20;;;5.70;;
21543;SDS011;10933;50.754;11.508;2023-11-18T09:31:05;6.10;;;4.57;;
21543;SDS011;10933;50.754;11.508;2023-11-18T09:33:36;5.03;;;4.73;;
21543;SDS011;10933;50.754;11.508;2023-11-18T09:36:05;5.83;;;5.50;;
21543;SDS011;10933;50.754;11.508;2023-11-18T09:38:34;5.57;;;5.27;;
21543;SDS011;10933;50.754;11.508;2023-11-18T09:41:02;8.10;;;5.30;;
21543;SDS011;10933;50.754;11.508;2023-11-18T09:43:32;7.10;;;6.53;;
21543;SDS011;10933;50.754;11.508;2023-11-18T09:46:07;10.23;;;9.73;;
21543;SDS011;10933;50.754;11.508;2023-11-18T09:51:21;8.38;;;5.63;;
21543;SDS011;10933;50.754;11.508;2023-11-18T09:54:14;7.57;;;7.00;;
21543;SDS011;10933;50.754;11.508;2023-11-18T10:00:05;3.25;;;3.05;;
21543;SDS011;10933;50.754;11.508;2023-11-18T10:02:44;3.47;;;3.28;;
21543;SDS011;10933;50.754;11.508;2023-11-18T10:05:12;3.58;;;3.33;;
21543;SDS011;10933;50.754;11.508;2023-11-18T10:07:43;3.70;;;3.50;;
21543;SDS011;10933;50.754;11.508;2023-11-18T10:10:12;3.28;;;3.08;;
21543;SDS011;10933;50.754;11.508;2023-11-18T10:12:45;3.72;;;3.42;;
21543;SDS011;10933;50.754;11.508;2023-11-18T10:15:18;3.78;;;3.47;;
21543;SDS011;10933;50.754;11.508;2023-11-18T10:17:50;5.00;;;4.43;;
21543;SDS011;10933;50.754;11.508;2023-11-18T10:23:15;6.50;;;6.10;;
21543;SDS011;10933;50.754;11.508;2023-11-18T10:28:36;5.28;;;4.90;;
21543;SDS011;10933;50.754;11.508;2023-11-18T10:33:38;4.03;;;3.75;;
21543;SDS011;10933;50.754;11.508;2023-11-18T10:36:21;4.72;;;4.18;;
21543;SDS011;10933;50.754;11.508;2023-11-18T10:38:49;4.20;;;4.00;;
21543;SDS011;10933;50.754;11.508;2023-11-18T10:41:18;3.55;;;3.35;;
21543;SDS011;10933;50.754;11.508;2023-11-18T10:43:44;4.30;;;4.00;;
21543;SDS011;10933;50.754;11.508;2023-11-18T10:46:13;3.63;;;3.20;;
21543;SDS011;10933;50.754;11.508;2023-11-18T10:48:44;3.20;;;3.00;;
21543;SDS011;10933;50.754;11.508;2023-11-18T10:51:13;8.57;;;8.07;;
21543;SDS011;10933;50.754;11.508;2023-11-18T10:53:48;3.70;;;3.50;;
21543;SDS011;10933;50.754;11.508;2023-11-18T10:56:28;3.90;;;3.70;;
21543;SDS011;10933;50.754;11.508;2023-11-18T10:58:55;5.80;;;4.90;;
21543;SDS011;10933;50.754;11.508;2023-11-18T11:01:34;7.70;;;7.20;;
21543;SDS011;10933;50.754;11.508;2023-11-18T11:04:07;3.30;;;3.10;;
21543;SDS011;10933;50.754;11.508;2023-11-18T11:06:44;3.33;;;3.13;;
21543;SDS011;10933;50.754;11.508;2023-11-18T11:09:17;3.67;;;3.38;;
21543;SDS011;10933;50.754;11.508;2023-11-18T11:11:56;3.40;;;3.20;;
21543;SDS011;10933;50.754;11.508;2023-11-18T11:14:31;3.83;;;3.63;;
21543;SDS011;10933;50.754;11.508;2023-11-18T11:17:06;5.47;;;3.15;;
21543;SDS011;10933;50.754;11.508;2023-11-18T11:28:24;3.70;;;3.50;;
21543;SDS011;10933;50.754;11.508;2023-11-18T11:31:21;2.90;;;2.33;;
21543;SDS011;10933;50.754;11.508;2023-11-18T11:34:04;3.85;;;3.47;;
21543;SDS011;10933;50.754;11.508;2023-11-18T11:36:49;2.50;;;2.30;;
21543;SDS011;10933;50.754;11.508;2023-11-18T11:39:18;3.55;;;3.25;;
21543;SDS011;10933;50.754;11.508;2023-11-18T11:41:51;2.65;;;2.05;;
21543;SDS011;10933;50.754;11.508;2023-11-18T11:44:22;4.00;;;2.70;;
21543;SDS011;10933;50.754;11.508;2023-11-18T11:46:55;9.05;;;2.45;;
21543;SDS011;10933;50.754;11.508;2023-11-18T11:49:25;2.28;;;2.17;;
21543;SDS011;10933;50.754;11.508;2023-11-18T11:54:45;1.92;;;1.83;;
21543;SDS011;10933;50.754;11.508;2023-11-18T11:57:38;4.00;;;3.70;;
21543;SDS011;10933;50.754;11.508;2023-11-18T12:00:10;3.00;;;2.80;;
21543;SDS011;10933;50.754;11.508;2023-11-18T12:02:47;3.03;;;2.83;;
21543;SDS011;10933;50.754;11.508;2023-11-18T12:05:18;5.85;;;5.35;;
21543;SDS011;10933;50.754;11.508;2023-11-18T12:07:44;2.00;;;1.88;;
21543;SDS011;10933;50.754;11.508;2023-11-18T12:10:12;1.40;;;1.30;;
21543;SDS011;10933;50.754;11.508;2023-11-18T12:12:40;1.60;;;1.50;;
21543;SDS011;10933;50.754;11.508;2023-11-18T12:15:07;3.67;;;3.42;;
21543;SDS011;10933;50.754;11.508;2023-11-18T12:20:37;4.85;;;4.55;;
21543;SDS011;10933;50.754;11.508;2023-11-18T12:23:12;6.28;;;5.80;;
21543;SDS011;10933;50.754;11.508;2023-11-18T12:25:42;1.20;;;1.10;;
21543;SDS011;10933;50.754;11.508;2023-11-18T12:28:16;1.60;;;1.50;;
21543;SDS011;10933;50.754;11.508;2023-11-18T12:30:46;3.20;;;2.90;;
21543;SDS011;10933;50.754;11.508;2023-11-18T12:33:25;3.85;;;3.55;;
21543;SDS011;10933;50.754;11.508;2023-11-18T12:36:23;1.83;;;1.73;;
21543;SDS011;10933;50.754;11.508;2023-11-18T12:42:05;1.27;;;1.20;;
21543;SDS011;10933;50.754;11.508;2023-11-18T12:47:39;1.10;;;1.00;;
21543;SDS011;10933;50.754;11.508;2023-11-18T12:50:09;1.20;;;1.00;;
21543;SDS011;10933;50.754;11.508;2023-11-18T12:52:43;3.47;;;3.17;;
21543;SDS011;10933;50.754;11.508;2023-11-18T12:55:11;2.93;;;2.63;;
21543;SDS011;10933;50.754;11.508;2023-11-18T12:57:45;1.63;;;1.53;;
21543;SDS011;10933;50.754;11.508;2023-11-18T13:00:13;3.57;;;1.90;;
21543;SDS011;10933;50.754;11.508;2023-11-18T13:02:44;1.43;;;1.10;;
21543;SDS011;10933;50.754;11.508;2023-11-18T13:05:10;1.50;;;1.33;;
21543;SDS011;10933;50.754;11.508;2023-11-18T13:07:36;1.30;;;1.20;;
21543;SDS011;10933;50.754;11.508;2023-11-18T13:10:02;4.37;;;4.07;;
21543;SDS011;10933;50.754;11.508;2023-11-18T13:12:29;1.77;;;1.67;;
21543;SDS011;10933;50.754;11.508;2023-11-18T13:14:55;2.13;;;1.97;;
21543;SDS011;10933;50.754;11.508;2023-11-18T13:17:22;2.57;;;2.37;;
21543;SDS011;10933;50.754;11.508;2023-11-18T13:19:48;2.63;;;1.83;;
21543;SDS011;10933;50.754;11.508;2023-11-18T13:22:19;4.23;;;2.03;;
21543;SDS011;10933;50.754;11.508;2023-11-18T13:24:45;2.83;;;2.03;;
21543;SDS011;10933;50.754;11.508;2023-11-18T13:27:15;3.70;;;2.20;;
21543;SDS011;10933;50.754;11.508;2023-11-18T13:29:45;1.80;;;1.70;;
21543;SDS011;10933;50.754;11.508;2023-11-18T13:32:18;1.43;;;1.20;;
21543;SDS011;10933;50.754;11.508;2023-11-18T13:34:48;1.50;;;1.40;;
21543;SDS011;10933;50.754;11.508;2023-11-18T13:37:14;1.93;;;1.60;;
21543;SDS011;10933;50.754;11.508;2023-11-18T13:39:53;9.73;;;8.73;;
21543;SDS011;10933;50.754;11.508;2023-11-18T13:42:24;2.13;;;1.93;;
21543;SDS011;10933;50.754;11.508;2023-11-18T13:44:53;2.80;;;2.30;;
21543;SDS011;10933;50.754;11.508;2023-11-18T13:47:26;10.23;;;9.23;;
21543;SDS011;10933;50.754;11.508;2023-11-18T13:49:56;2.30;;;2.20;;
21543;SDS011;10933;50.754;11.508;2023-11-18T13:52:25;2.30;;;2.20;;
21543;SDS011;10933;50.754;11.508;2023-11-18T13:54:52;3.00;;;2.80;;
21543;SDS011;10933;50.754;11.508;2023-11-18T13:57:22;1.80;;;1.70;;
21543;SDS011;10933;50.754;11.508;2023-11-18T13:59:49;3.63;;;2.80;;
21543;SDS011;10933;50.754;11.508;2023-11-18T14:02:16;3.50;;;3.30;;
21543;SDS011;10933;50.754;11.508;2023-11-18T14:04:42;3.10;;;2.80;;
21543;SDS011;10933;50.754;11.508;2023-11-18T14:07:09;4.23;;;3.13;;
21543;SDS011;10933;50.754;11.508;2023-11-18T14:09:41;3.93;;;3.73;;
21543;SDS011;10933;50.754;11.508;2023-11-18T14:12:07;4.33;;;4.03;;
21543;SDS011;10933;50.754;11.508;2023-11-18T14:14:34;4.03;;;3.77;;
21543;SDS011;10933;50.754;11.508;2023-11-18T14:17:00;3.70;;;3.50;;
21543;SDS011;10933;50.754;11.508;2023-11-18T14:19:26;4.03;;;3.63;;
21543;SDS011;10933;50.754;11.508;2023-11-18T14:21:54;4.97;;;4.57;;
21543;SDS011;10933;50.754;11.508;2023-11-18T14:24:20;5.47;;;4.47;;
21543;SDS011;10933;50.754;11.508;2023-11-18T14:26:55;5.20;;;4.70;;
21543;SDS011;10933;50.754;11.508;2023-11-18T14:29:21;3.70;;;3.50;;
21543;SDS011;10933;50.754;11.508;2023-11-18T14:31:48;5.00;;;4.60;;
21543;SDS011;10933;50.754;11.508;2023-11-18T14:34:14;4.93;;;4.63;;
21543;SDS011;10933;50.754;11.508;2023-11-18T14:36:40;4.80;;;4.27;;
21543;SDS011;10933;50.754;11.508;2023-11-18T14:39:08;4.03;;;3.73;;
21543;SDS011;10933;50.754;11.508;2023-11-18T14:41:35;4.03;;;3.73;;
21543;SDS011;10933;50.754;11.508;2023-11-18T14:44:02;4.23;;;3.90;;
21543;SDS011;10933;50.754;11.508;2023-11-18T14:46:30;4.30;;;4.00;;
21543;SDS011;10933;50.754;11.508;2023-11-18T14:48:56;4.57;;;4.17;;
21543;SDS011;10933;50.754;11.508;2023-11-18T14:51:23;5.63;;;5.13;;
21543;SDS011;10933;50.754;11.508;2023-11-18T14:53:48;6.70;;;6.20;;
21543;SDS011;10933;50.754;11.508;2023-11-18T14:56:14;7.80;;;7.30;;
21543;SDS011;10933;50.754;11.508;2023-11-18T14:58:40;9.17;;;8.40;;
21543;SDS011;10933;50.754;11.508;2023-11-18T15:01:06;5.80;;;5.40;;
21543;SDS011;10933;50.754;11.508;2023-11-18T15:03:36;4.77;;;4.43;;
21543;SDS011;10933;50.754;11.508;2023-11-18T15:06:02;5.13;;;4.83;;
21543;SDS011;10933;50.754;11.508;2023-11-18T15:08:28;6.63;;;6.23;;
21543;SDS011;10933;50.754;11.508;2023-11-18T15:10:55;5.80;;;5.40;;
21543;SDS011;10933;50.754;11.508;2023-11-18T15:13:23;5.90;;;5.60;;
21543;SDS011;10933;50.754;11.508;2023-11-18T15:15:49;7.30;;;6.80;;
21543;SDS011;10933;50.754;11.508;2023-11-18T15:18:15;11.83;;;10.97;;
21543;SDS011;10933;50.754;11.508;2023-11-18T15:20:45;7.00;;;6.60;;
21543;SDS011;10933;50.754;11.508;2023-11-18T15:23:12;10.17;;;9.57;;